Latest Weather Observations for Edinburgh

IDS60801

Issued at 9:31 am CDT Saturday 10 December 2022 (issued every 10 minutes, with the page automatically refreshed every 10 minutes)

About weather observations | Map of weather stations | Latest weather observations for SA | Other Formats
Station Details ID: 023083 Name: EDINBURGH RAAF Lat: -34.71 Lon: 138.62 Height: 16.54 m
Data from the previous 72 hours. | See also: Recent months at Edinburgh
Date/Time
CDT
Temp
°C
App
Temp
°C
Dew
Point
°C
Rel
Hum
%
Delta-T
°C
Wind Press
QNH
hPa
Press
MSL
hPa
Rain since
9am
mm
Dir  Spd
km/h
Gust
km/h
Spd
kts
Gust
kts
10/09:30am 26.6 20.8 6.1 27 10.7 NE 26 35 14 19 1010.6 1010.5 0.0
10/09:00am 24.3 17.8 4.6 28 9.8 NE 28 33 15 18 1011.1 1011.0 0.0
10/08:30am 22.7 16.1 4.2 30 9.1 NE 28 37 15 20 1010.9 1010.8 0.0
10/08:00am 22.3 15.4 4.4 31 8.8 NE 30 39 16 21 1011.1 1011.0 0.0
10/07:30am 21.0 14.4 4.1 33 8.2 NE 28 35 15 19 1010.9 1010.8 0.0
10/07:00am 19.6 13.1 6.4 42 6.6 NE 30 35 16 19 1010.9 1010.8 0.0
10/06:30am 20.6 13.5 3.3 32 8.2 NE 30 39 16 21 1010.8 1010.7 0.0
10/06:00am 20.2 13.0 3.0 32 8.1 NE 30 43 16 23 1010.8 1010.7 0.0
10/05:30am 20.1 12.5 2.9 32 8.1 ENE 32 43 17 23 1010.6 1010.5 0.0
10/05:00am 20.2 12.5 2.5 31 8.2 NE 32 43 17 23 1010.6 1010.5 0.0
10/04:30am 20.0 12.7 2.4 31 8.2 NE 30 41 16 22 1010.8 1010.7 0.0
10/04:00am 20.1 13.2 2.5 31 8.2 NE 28 39 15 21 1010.7 1010.6 0.0
10/03:30am 20.0 12.8 2.8 32 8.0 ENE 30 43 16 23 1010.8 1010.7 0.0
10/03:00am 20.0 13.1 2.8 32 8.0 NE 28 39 15 21 1011.0 1010.9 0.0
10/02:30am 20.2 12.9 2.5 31 8.2 NE 30 41 16 22 1011.0 1010.9 0.0
10/02:00am 20.3 13.8 2.6 31 8.3 ENE 26 35 14 19 1011.3 1011.2 0.0
10/01:30am 20.0 14.3 2.8 32 8.0 NE 22 32 12 17 1011.7 1011.6 0.0
10/01:00am 20.1 14.8 2.9 32 8.1 ENE 20 26 11 14 1011.7 1011.6 0.0
10/12:30am 20.1 15.4 3.3 33 7.9 NE 17 20 9 11 1012.1 1012.0 0.0
10/12:00am 20.7 15.6 3.0 31 8.3 ENE 19 24 10 13 1012.2 1012.1 0.0
 
Date/Time
CDT
Temp
°C
App
Temp
°C
Dew
Point
°C
Rel
Hum
%
Delta-T
°C
Wind Press
QNH
hPa
Press
MSL
hPa
Rain since
9am
mm
Dir  Spd
km/h
Gust
km/h
Spd
kts
Gust
kts
09/11:30pm 21.3 16.6 3.0 30 8.7 ENE 17 24 9 13 1012.4 1012.3 0.0
09/11:00pm 21.4 16.1 3.1 30 8.7 E 20 28 11 15 1012.5 1012.4 0.0
09/10:30pm 21.8 16.6 3.5 30 8.8 E 20 28 11 15 1012.5 1012.4 0.0
09/10:00pm 22.0 17.9 4.1 31 8.7 ENE 15 20 8 11 1012.7 1012.6 0.0
09/09:30pm 22.2 19.0 5.2 33 8.5 ENE 11 15 6 8 1012.5 1012.4 0.0
09/09:00pm 23.1 19.9 5.1 31 9.0 E 11 15 6 8 1012.2 1012.1 0.0
09/08:30pm 24.1 20.6 5.5 30 9.4 E 13 20 7 11 1012.2 1012.1 0.0
09/08:00pm 24.8 20.2 5.6 29 9.8 E 19 26 10 14 1012.0 1011.9 0.0
09/07:30pm 25.7 21.4 5.3 27 10.4 E 17 22 9 12 1011.8 1011.7 0.0
09/07:00pm 26.1 22.5 5.1 26 10.7 ENE 13 17 7 9 1011.6 1011.5 0.0
09/06:30pm 26.6 23.8 5.0 25 11.0 NE 9 22 5 12 1011.6 1011.5 0.0
09/06:00pm 26.6 23.6 6.1 27 10.7 SW 11 17 6 9 1011.5 1011.4 0.0
09/05:30pm 26.7 23.1 6.7 28 10.5 WNW 15 24 8 13 1011.8 1011.7 0.0
09/05:00pm 26.7 23.1 5.1 25 11.0 E 13 20 7 11 1012.0 1011.9 0.0
09/04:30pm 26.9 23.7 5.2 25 11.1 ENE 11 17 6 9 1012.4 1012.3 0.0
09/04:00pm 26.6 22.9 6.1 27 10.7 E 15 37 8 20 1012.7 1012.6 0.0
09/03:30pm 26.0 21.9 4.5 25 10.8 NE 15 28 8 15 1013.0 1012.9 0.0
09/03:00pm 26.0 22.0 5.0 26 10.7 NE 15 24 8 13 1013.4 1013.3 0.0
09/02:30pm 24.7 20.1 3.9 26 10.3 NE 17 28 9 15 1013.9 1013.8 0.0
09/02:00pm 24.7 20.3 4.5 27 10.1 ENE 17 33 9 18 1014.3 1014.2 0.0
09/01:30pm 24.2 20.1 6.0 31 9.3 NE 17 28 9 15 1014.7 1014.6 0.0
09/01:00pm 23.9 19.5 4.8 29 9.5 ENE 17 26 9 14 1015.2 1015.1 0.0
09/12:30pm 21.9 16.8 4.0 31 8.7 ENE 20 26 11 14 1015.5 1015.4 0.0
09/12:00pm 21.0 15.1 3.7 32 8.3 NE 24 33 13 18 1016.1 1016.0 0.0
09/11:30am 20.5 14.9 3.3 32 8.1 NE 22 33 12 18 1016.3 1016.2 0.0
09/11:00am 19.9 13.0 2.7 32 8.0 NE 28 35 15 19 1016.5 1016.4 0.0
09/10:30am 19.2 13.3 3.8 36 7.3 ENE 24 35 13 19 1016.4 1016.3 0.0
09/10:00am 18.4 12.1 3.8 38 6.9 ENE 26 35 14 19 1016.6 1016.5 0.0
09/09:30am 16.7 10.8 4.1 43 5.9 ENE 24 32 13 17 1017.2 1017.1 0.0
09/09:00am 15.5 10.0 3.9 46 5.3 E 22 32 12 17 1018.0 1017.9 0.0
09/08:30am 14.8 9.7 3.9 48 5.0 ENE 20 32 11 17 1018.3 1018.2 0.0
09/08:00am 14.3 9.7 3.7 49 4.8 ENE 17 24 9 13 1018.3 1018.2 0.0
09/07:30am 13.9 9.3 3.7 50 4.6 ENE 17 26 9 14 1017.5 1017.4 0.0
09/07:00am 13.6 8.4 3.4 50 4.6 ENE 20 32 11 17 1016.7 1016.6 0.0
09/06:30am 13.7 8.7 3.5 50 4.6 ENE 19 28 10 15 1016.1 1016.0 0.0
09/06:00am 13.7 9.1 3.5 50 4.6 ENE 17 28 9 15 1016.1 1016.0 0.0
09/05:30am 13.7 9.4 3.5 50 4.6 E 15 24 8 13 1015.5 1015.4 0.0
09/05:00am 13.7 8.7 3.5 50 4.6 E 19 33 10 18 1015.0 1014.9 0.0
09/04:30am 13.7 9.4 3.5 50 4.6 E 15 26 8 14 1014.6 1014.5 0.0
09/04:00am 13.7 8.5 3.8 51 4.5 ESE 20 33 11 18 1014.6 1014.5 0.0
09/03:30am 13.7 8.8 4.0 52 4.4 ESE 19 32 10 17 1015.1 1015.0 0.0
09/03:00am 13.9 9.8 4.5 53 4.3 ESE 15 22 8 12 1015.6 1015.5 0.0
09/02:30am 13.8 10.2 5.2 56 4.0 ESE 13 22 7 12 1016.0 1015.9 0.0
09/02:00am 13.7 8.9 5.6 58 3.8 ESE 20 30 11 16 1015.9 1015.8 0.0
09/01:30am 13.4 9.6 5.6 59 3.7 ESE 15 26 8 14 1016.4 1016.3 0.0
09/01:00am 13.2 10.1 5.4 59 3.6 ESE 11 17 6 9 1017.4 1017.3 0.0
09/12:30am 13.2 9.6 5.1 58 3.8 SE 13 19 7 10 1017.5 1017.4 0.0
09/12:00am 13.1 10.6 4.8 57 3.8 SE 7 13 4 7 1017.8 1017.7 0.0
 
Date/Time
CDT
Temp
°C
App
Temp
°C
Dew
Point
°C
Rel
Hum
%
Delta-T
°C
Wind Press
QNH
hPa
Press
MSL
hPa
Rain since
9am
mm
Dir  Spd
km/h
Gust
km/h
Spd
kts
Gust
kts
08/11:30pm 13.3 9.7 5.0 57 3.8 SE 13 20 7 11 1017.8 1017.7 0.0
08/11:00pm 13.4 9.7 4.6 55 4.0 SE 13 20 7 11 1018.2 1018.1 0.0
08/10:30pm 13.7 10.4 4.8 55 4.1 SE 11 17 6 9 1018.7 1018.6 0.0
08/10:00pm 14.0 9.9 4.6 53 4.3 SSE 15 20 8 11 1018.7 1018.6 0.0
08/09:30pm 14.4 10.4 4.7 52 4.5 SSE 15 20 8 11 1018.5 1018.4 0.0
08/09:00pm 14.9 10.8 4.6 50 4.8 SE 15 20 8 11 1018.3 1018.2 0.0
08/08:30pm 15.4 11.0 4.8 49 5.0 SE 17 28 9 15 1017.9 1017.8 0.0
08/08:00pm 15.9 11.1 4.9 48 5.2 SE 19 26 10 14 1017.7 1017.6 0.0
08/07:30pm 16.6 11.7 5.3 47 5.4 SE 20 30 11 16 1017.0 1016.9 0.0
08/07:00pm 17.9 13.7 5.8 45 5.9 SE 17 26 9 14 1016.5 1016.4 0.0
08/06:30pm 18.6 13.7 5.1 41 6.5 SE 20 30 11 16 1015.9 1015.8 0.0
08/06:00pm 20.1 15.6 6.1 40 7.0 ESE 19 32 10 17 1015.7 1015.6 0.0
08/05:30pm 21.2 17.4 5.9 37 7.7 SE 15 22 8 12 1015.3 1015.2 0.0
08/05:00pm 21.1 15.8 5.1 35 7.9 SSW 22 33 12 18 1015.7 1015.6 0.0
08/04:30pm 20.3 13.4 6.6 41 6.9 WSW 32 43 17 23 1016.1 1016.0 0.0
08/04:00pm 20.1 13.2 6.5 41 6.8 SSW 32 43 17 23 1016.6 1016.5 0.0
08/03:30pm 19.9 12.7 4.8 37 7.3 SSW 32 44 17 24 1016.9 1016.8 0.0
08/03:00pm 19.9 12.8 6.3 41 6.8 SW 33 43 18 23 1017.5 1017.4 0.0
08/02:30pm 19.5 12.0 6.3 42 6.6 WSW 35 44 19 24 1018.0 1017.9 0.0
08/02:00pm 19.9 13.4 6.6 42 6.7 WSW 30 39 16 21 1018.2 1018.1 0.0
08/01:30pm 20.4 16.2 4.0 34 7.9 SE 15 24 8 13 1018.0 1017.9 0.0
08/01:00pm 19.8 15.4 4.7 37 7.3 SSE 17 30 9 16 1018.4 1018.3 0.0
08/12:30pm 19.2 14.7 4.2 37 7.1 WSW 17 30 9 16 1018.4 1018.3 0.0
08/12:00pm 18.7 14.7 2.9 35 7.3 SE 13 22 7 12 1018.9 1018.8 0.0
08/11:30am 18.8 14.6 3.8 37 7.1 SE 15 24 8 13 1019.1 1019.0 0.0
08/11:00am 18.6 14.9 4.4 39 6.8 S 13 20 7 11 1019.1 1019.0 0.0
08/10:30am 18.3 14.2 4.1 39 6.7 SSE 15 26 8 14 1019.2 1019.1 0.0
08/10:00am 16.7 13.0 4.4 44 5.8 SSW 13 22 7 12 1019.6 1019.5 0.0
08/09:30am 16.0 10.7 3.1 42 5.9 SSW 20 32 11 17 1019.6 1019.5 0.0
08/09:00am 16.8 12.4 4.5 44 5.8 S 17 30 9 16 1019.7 1019.6 0.0
08/08:30am 15.0 10.3 3.2 45 5.3 S 17 30 9 16 1019.6 1019.5 0.0
08/08:00am 14.0 11.5 4.6 53 4.3 S 7 11 4 6 1019.3 1019.2 0.0
08/07:30am 11.2 8.8 5.3 67 2.7 NW 7 11 4 6 1019.1 1019.0 0.0
08/07:00am 9.6 8.7 6.0 78 1.7 CALM 0 0 0 0 1018.7 1018.6 0.0
08/06:30am 8.4 6.1 5.0 79 1.5 NE 6 7 3 4 1018.5 1018.4 0.0
08/06:00am 7.9 5.3 4.3 78 1.6 NE 7 9 4 5 1018.1 1018.0 0.0
08/05:30am 7.6 5.1 3.6 76 1.7 NE 6 9 3 5 1017.9 1017.8 0.0
08/05:00am 8.6 5.2 4.2 74 1.9 NE 11 13 6 7 1017.5 1017.4 0.0
08/04:30am 8.0 5.4 4.2 77 1.6 NE 7 9 4 5 1017.5 1017.4 0.0
08/04:00am 7.8 6.4 3.8 76 1.7 CALM 0 0 0 0 1017.6 1017.5 0.0
08/03:30am 7.9 6.1 3.2 72 2.0 SSW 2 6 1 3 1017.5 1017.4 0.0
08/03:00am 7.9 6.4 3.2 72 2.0 CALM 0 0 0 0 1017.4 1017.3 0.0
08/02:30am 11.2 8.6 3.3 58 3.5 SSE 6 7 3 4 1017.3 1017.2 0.0
08/02:00am 10.3 8.4 3.1 61 3.1 S 2 7 1 4 1017.5 1017.4 0.0
08/01:30am 10.7 8.0 2.8 58 3.4 SSW 6 9 3 5 1017.7 1017.6 0.0
08/01:00am 12.0 9.4 3.0 54 3.9 S 6 9 3 5 1017.8 1017.7 0.0
08/12:30am 12.4 9.6 3.1 53 4.1 S 7 11 4 6 1018.0 1017.9 0.0
08/12:00am 12.3 9.0 2.7 52 4.2 S 9 13 5 7 1018.0 1017.9 0.0
 
Date/Time
CDT
Temp
°C
App
Temp
°C
Dew
Point
°C
Rel
Hum
%
Delta-T
°C
Wind Press
QNH
hPa
Press
MSL
hPa
Rain since
9am
mm
Dir  Spd
km/h
Gust
km/h
Spd
kts
Gust
kts
07/11:30pm 12.8 8.8 2.9 51 4.4 S 13 20 7 11 1017.9 1017.8 0.0
07/11:00pm 13.2 8.1 3.0 50 4.5 S 19 26 10 14 1017.7 1017.6 0.0
07/10:30pm 13.6 8.0 3.7 51 4.5 S 22 33 12 18 1017.6 1017.5 0.0
07/10:00pm 13.7 8.4 2.9 48 4.8 S 20 30 11 16 1017.3 1017.2 0.0
07/09:30pm 13.9 8.7 3.4 49 4.7 S 20 32 11 17 1016.8 1016.7 0.0
07/09:00pm 14.5 8.5 3.6 48 4.9 S 24 35 13 19 1016.1 1016.0 0.0
07/08:30pm 15.2 8.7 4.9 50 4.8 S 28 39 15 21 1015.6 1015.5 0.0
07/08:00pm 15.5 8.9 6.0 53 4.6 SW 30 41 16 22 1015.0 1014.9 0.0
07/07:30pm 16.6 8.6 5.9 49 5.2 SSW 37 50 20 27 1014.6 1014.5 0.0
07/07:00pm 17.4 9.1 6.3 48 5.5 SW 39 54 21 29 1014.2 1014.1 0.0
07/06:30pm 17.9 10.1 8.2 53 5.0 SSW 39 54 21 29 1013.5 1013.4 0.0
07/06:00pm 19.1 11.7 8.4 50 5.5 SW 37 46 20 25 1013.0 1012.9 0.0
07/05:30pm 19.1 10.9 8.1 49 5.7 SW 41 56 22 30 1012.9 1012.8 0.0
07/05:00pm 18.3 11.2 9.4 56 4.7 SW 37 46 20 25 1012.8 1012.7 0.0
07/04:30pm 17.9 10.2 8.5 54 4.8 SW 39 48 21 26 1012.8 1012.7 0.0
07/04:00pm 17.9 10.3 9.0 56 4.6 SW 39 52 21 28 1012.7 1012.6 0.0
07/03:40pm 20.5 13.1 8.2 45 6.4 SW 37 56 20 30 1012.3 1012.2 0.0
07/03:30pm 20.7 12.5 6.6 40 7.1 SW 39 54 21 29 1012.2 1012.1 0.0
07/03:00pm 20.5 12.8 5.3 37 7.5 SW 35 46 19 25 1012.1 1012.0 0.0
07/02:30pm 21.0 13.0 5.8 37 7.6 SW 37 48 20 26 1012.0 1011.9 0.0
07/02:00pm 20.5 12.8 5.3 37 7.5 SSW 35 48 19 26 1011.9 1011.8 0.0
07/01:52pm 21.2 14.2 6.7 39 7.4 SSW 33 52 18 28 1011.9 1011.8 0.0
07/01:30pm 20.5 12.4 7.2 42 6.8 SW 39 52 21 28 1011.9 1011.8 0.0
07/01:00pm 19.7 12.0 7.1 44 6.4 SW 37 57 20 31 1011.6 1011.5 0.0
07/12:30pm 20.5 13.8 8.2 45 6.4 SW 33 44 18 24 1011.7 1011.6 0.0
07/12:00pm 18.7 11.7 6.9 46 5.9 SW 33 44 18 24 1011.8 1011.7 0.0
07/11:35am 18.3 11.5 6.8 47 5.7 SW 32 52 17 28 1011.7 1011.6 0.0
07/11:30am 18.3 11.3 6.2 45 6.0 SW 32 41 17 22 1011.7 1011.6 0.0
07/11:00am 19.0 11.4 5.8 42 6.5 SW 35 44 19 24 1011.6 1011.5 0.0
07/10:30am 18.6 11.7 6.4 45 6.1 SW 32 43 17 23 1011.5 1011.4 0.0
07/10:00am 18.7 12.0 7.5 48 5.7 SSW 32 39 17 21 1011.3 1011.2 0.0

Other formats

Comma delimited format used in spreadsheet applications
http://www.bom.gov.au/fwo/IDS60801/IDS60801.95676.axf

JavaScript Object Notation format (JSON) in row-major order
http://www.bom.gov.au/fwo/IDS60801/IDS60801.95676.json

Data quality

Most of these data are generated automatically and are frequently updated. Quality checks on data are not normally performed. It is possible for incorrect values to appear. Refer to information at About Latest Weather Observations and please check the disclaimer before using these data.